createdAt,value
2024-02-19T00:00:54.874Z,200.14
2024-02-19T00:01:55.070Z,198.80
2024-02-19T00:02:54.960Z,198.44
2024-02-19T00:03:55.021Z,197.41
2024-02-19T00:04:55.053Z,196.71
2024-02-19T00:05:55.097Z,196.58
2024-02-19T00:06:55.152Z,195.83
2024-02-19T00:07:55.313Z,195.27
2024-02-19T00:08:55.220Z,196.51
2024-02-19T00:09:55.232Z,195.90
2024-02-19T00:10:55.222Z,196.33
2024-02-19T00:11:55.255Z,196.08
2024-02-19T00:12:55.446Z,197.29
2024-02-19T00:13:55.357Z,196.98
2024-02-19T00:14:55.422Z,194.41
2024-02-19T00:15:55.476Z,193.79
2024-02-19T00:16:55.460Z,193.66
2024-02-19T00:17:55.579Z,194.50
2024-02-19T00:18:55.814Z,193.36
2024-02-19T00:19:55.666Z,192.83
2024-02-19T00:20:55.689Z,193.49
2024-02-19T00:21:55.745Z,195.52
2024-02-19T00:22:55.825Z,197.23
2024-02-19T00:23:55.831Z,198.14
2024-02-19T00:24:55.867Z,199.25
2024-02-19T00:25:55.903Z,200.19
2024-02-19T00:26:55.963Z,200.08
2024-02-19T00:27:56.043Z,199.41
2024-02-19T00:28:55.968Z,200.14
2024-02-19T00:29:55.941Z,199.47
2024-02-19T00:30:56.097Z,199.66
2024-02-19T00:31:56.144Z,199.76
2024-02-19T00:32:56.280Z,199.88
2024-02-19T00:33:56.444Z,200.29
2024-02-19T00:34:56.302Z,198.35
2024-02-19T00:35:56.304Z,197.59
2024-02-19T00:36:56.416Z,197.18
2024-02-19T00:37:56.425Z,197.89
2024-02-19T00:38:56.442Z,197.45
2024-02-19T00:39:57.013Z,197.15
2024-02-19T00:40:56.524Z,197.22
2024-02-19T00:41:56.549Z,198.27
2024-02-19T00:42:56.714Z,197.83
2024-02-19T00:43:56.656Z,197.58
2024-02-19T00:44:56.662Z,198.10
2024-02-19T00:45:56.877Z,197.11
2024-02-19T00:46:56.796Z,196.30
2024-02-19T00:47:56.824Z,192.12
2024-02-19T00:48:56.834Z,189.56
2024-02-19T00:49:57.005Z,190.91
2024-02-19T00:50:56.893Z,189.45
2024-02-19T00:51:56.966Z,189.71
2024-02-19T00:52:57.010Z,192.07
2024-02-19T00:53:57.065Z,192.61
2024-02-19T00:54:57.183Z,193.10
2024-02-19T00:55:57.141Z,193.45
2024-02-19T00:56:57.251Z,193.07
2024-02-19T00:57:57.317Z,195.12
2024-02-19T00:58:57.299Z,194.97
2024-02-19T00:59:57.348Z,195.24
2024-02-19T01:00:57.454Z,195.07
2024-02-19T01:01:57.650Z,194.92
2024-02-19T01:02:57.513Z,194.96
2024-02-19T01:03:57.568Z,194.97
2024-02-19T01:04:57.649Z,194.79
2024-02-19T01:05:57.633Z,194.36
2024-02-19T01:06:57.735Z,194.68
2024-02-19T01:07:58.087Z,194.71
2024-02-19T01:08:57.640Z,195.12
2024-02-19T01:09:57.784Z,195.46
2024-02-19T01:10:57.781Z,195.65
2024-02-19T01:11:57.865Z,196.18
2024-02-19T01:12:57.914Z,196.07
2024-02-19T01:13:57.875Z,196.42
2024-02-19T01:14:57.980Z,195.79
2024-02-19T01:15:57.979Z,196.28
2024-02-19T01:16:58.038Z,196.90
2024-02-19T01:17:58.100Z,196.71
2024-02-19T01:18:58.264Z,196.96
2024-02-19T01:19:58.263Z,197.02
2024-02-19T01:20:58.218Z,197.47
2024-02-19T01:21:58.318Z,197.69
2024-02-19T01:22:58.332Z,197.43
2024-02-19T01:23:58.252Z,197.89
2024-02-19T01:24:58.351Z,197.88
2024-02-19T01:25:58.394Z,197.54
2024-02-19T01:26:58.408Z,198.58
2024-02-19T01:27:58.487Z,198.78
2024-02-19T01:28:58.472Z,199.46
2024-02-19T01:29:58.512Z,199.65
2024-02-19T01:30:58.623Z,198.52
2024-02-19T01:31:58.641Z,197.47
2024-02-19T01:32:58.736Z,197.50
2024-02-19T01:33:58.788Z,196.16
2024-02-19T01:34:59.010Z,197.34
2024-02-19T01:35:58.871Z,196.65
2024-02-19T01:36:59.029Z,196.93
2024-02-19T01:37:58.945Z,197.38
2024-02-19T01:38:58.948Z,195.71
2024-02-19T01:39:59.004Z,196.53
2024-02-19T01:40:59.105Z,195.73
2024-02-19T01:41:59.282Z,194.51
2024-02-19T01:42:59.254Z,192.73
2024-02-19T01:43:59.219Z,190.66
2024-02-19T01:44:59.286Z,190.73
2024-02-19T01:45:59.253Z,190.58
2024-02-19T01:46:59.290Z,189.77
2024-02-19T01:47:59.539Z,189.39
2024-02-19T01:48:59.382Z,190.20
2024-02-19T01:49:59.469Z,190.55
2024-02-19T01:50:59.501Z,188.64
2024-02-19T01:51:59.584Z,188.79
2024-02-19T01:52:59.554Z,189.37
2024-02-19T01:53:59.583Z,188.32
2024-02-19T01:54:59.712Z,189.12
2024-02-19T01:55:59.711Z,189.21
2024-02-19T01:56:59.699Z,189.07
2024-02-19T01:57:59.862Z,189.76
2024-02-19T01:58:59.842Z,189.50
2024-02-19T01:59:59.842Z,189.41
2024-02-19T02:01:00.084Z,190.24
2024-02-19T02:01:59.995Z,190.97
2024-02-19T02:03:00.103Z,190.86
2024-02-19T02:04:00.126Z,191.49
2024-02-19T02:05:00.059Z,191.89
2024-02-19T02:06:00.133Z,191.37
2024-02-19T02:07:00.270Z,191.03
2024-02-19T02:08:00.875Z,190.23
2024-02-19T02:09:00.206Z,189.30
2024-02-19T02:10:00.329Z,190.00
2024-02-19T02:11:00.415Z,189.93
2024-02-19T02:12:00.309Z,190.39
2024-02-19T02:13:00.475Z,191.21
2024-02-19T02:14:00.430Z,190.92
2024-02-19T02:15:00.455Z,191.75
2024-02-19T02:16:00.507Z,191.77
2024-02-19T02:17:00.545Z,192.57
2024-02-19T02:18:00.629Z,191.31
2024-02-19T02:19:00.778Z,188.30
2024-02-19T02:20:00.852Z,188.46
2024-02-19T02:21:00.710Z,187.59
2024-02-19T02:22:00.743Z,187.73
2024-02-19T02:23:00.694Z,188.54
2024-02-19T02:24:00.805Z,188.79
2024-02-19T02:25:00.833Z,189.30
2024-02-19T02:26:00.817Z,189.66
2024-02-19T02:27:00.849Z,190.85
2024-02-19T02:28:00.998Z,190.75
2024-02-19T02:29:00.952Z,190.31
2024-02-19T02:30:00.968Z,189.90
2024-02-19T02:31:01.096Z,189.06
2024-02-19T02:32:01.069Z,188.46
2024-02-19T02:33:01.221Z,188.95
2024-02-19T02:34:01.445Z,189.97
2024-02-19T02:35:01.148Z,190.57
2024-02-19T02:36:01.160Z,190.05
2024-02-19T02:37:01.245Z,189.98
2024-02-19T02:38:01.403Z,188.36
2024-02-19T02:39:01.344Z,189.10
2024-02-19T02:40:01.293Z,188.62
2024-02-19T02:41:01.336Z,188.78
2024-02-19T02:42:01.308Z,188.44
2024-02-19T02:43:01.373Z,188.73
2024-02-19T02:44:01.354Z,188.90
2024-02-19T02:45:01.364Z,186.94
2024-02-19T02:46:01.486Z,186.45
2024-02-19T02:47:01.475Z,186.41
2024-02-19T02:48:01.653Z,185.88
2024-02-19T02:49:01.808Z,185.81
2024-02-19T02:50:01.666Z,184.55
2024-02-19T02:51:01.695Z,184.29
2024-02-19T02:52:01.748Z,187.51
2024-02-19T02:53:01.779Z,187.63
2024-02-19T02:54:01.763Z,187.13
2024-02-19T02:55:01.846Z,186.76
2024-02-19T02:56:01.846Z,185.75
2024-02-19T02:57:01.914Z,185.62
2024-02-19T02:58:01.988Z,185.44
2024-02-19T02:59:02.023Z,184.70
2024-02-19T03:00:02.050Z,184.93
2024-02-19T03:01:02.163Z,183.60
2024-02-19T03:02:02.199Z,182.83
2024-02-19T03:03:02.186Z,182.27
2024-02-19T03:04:02.263Z,183.35
2024-02-19T03:05:02.270Z,182.83
2024-02-19T03:06:02.324Z,183.05
2024-02-19T03:07:02.439Z,183.30
2024-02-19T03:08:02.395Z,183.81
2024-02-19T03:09:02.453Z,184.60
2024-02-19T03:10:02.531Z,184.08
2024-02-19T03:11:02.598Z,184.55
2024-02-19T03:12:02.545Z,183.60
2024-02-19T03:13:02.615Z,181.56
2024-02-19T03:14:02.668Z,181.14
2024-02-19T03:15:02.674Z,180.80
2024-02-19T03:16:02.818Z,181.21
2024-02-19T03:17:02.621Z,180.52
2024-02-19T03:18:02.768Z,180.16
2024-02-19T03:19:02.767Z,180.64
2024-02-19T03:20:02.748Z,182.50
2024-02-19T03:21:02.827Z,183.23
2024-02-19T03:22:02.869Z,184.00
2024-02-19T03:23:02.970Z,184.25
2024-02-19T03:24:02.984Z,185.04
2024-02-19T03:25:03.158Z,187.49
2024-02-19T03:26:03.114Z,188.56
2024-02-19T03:27:03.080Z,188.52
2024-02-19T03:28:03.152Z,187.79
2024-02-19T03:29:03.150Z,186.92
2024-02-19T03:30:03.250Z,186.58
2024-02-19T03:31:03.332Z,185.03
2024-02-19T03:32:03.314Z,185.44
2024-02-19T03:33:03.502Z,185.14
2024-02-19T03:34:03.539Z,186.67
2024-02-19T03:35:03.454Z,187.16
2024-02-19T03:36:03.426Z,186.41
2024-02-19T03:37:03.480Z,187.80
2024-02-19T03:38:03.533Z,188.82
2024-02-19T03:39:03.696Z,187.38
2024-02-19T03:40:03.695Z,187.07
2024-02-19T03:41:03.689Z,185.36
2024-02-19T03:42:03.747Z,185.17
2024-02-19T03:43:03.879Z,185.67
2024-02-19T03:44:03.843Z,184.68
2024-02-19T03:45:04.755Z,184.92
2024-02-19T03:46:04.008Z,186.79
2024-02-19T03:47:03.989Z,185.59
2024-02-19T03:48:04.043Z,185.47
2024-02-19T03:49:04.217Z,184.30
2024-02-19T03:50:04.083Z,183.48
2024-02-19T03:51:04.094Z,181.89
2024-02-19T03:52:04.252Z,180.93
2024-02-19T03:53:04.214Z,182.96
2024-02-19T03:54:04.368Z,183.49
2024-02-19T03:55:04.316Z,184.27
2024-02-19T03:56:04.377Z,185.82
2024-02-19T03:57:04.414Z,188.26
2024-02-19T03:58:04.460Z,190.22
2024-02-19T03:59:04.482Z,192.06
2024-02-19T04:00:04.458Z,192.66
2024-02-19T04:01:08.217Z,192.75
2024-02-19T04:02:04.527Z,192.82
2024-02-19T04:03:04.524Z,192.59
2024-02-19T04:04:04.607Z,192.46
2024-02-19T04:05:04.567Z,193.36
2024-02-19T04:06:04.542Z,192.18
2024-02-19T04:07:04.647Z,192.50
2024-02-19T04:08:06.557Z,192.23
2024-02-19T04:09:04.532Z,192.23
2024-02-19T04:10:04.581Z,191.87
2024-02-19T04:11:04.553Z,192.44
2024-02-19T04:12:04.538Z,193.11
2024-02-19T04:13:04.581Z,189.95
2024-02-19T04:14:04.588Z,188.70
2024-02-19T04:15:04.570Z,188.82
2024-02-19T04:16:04.609Z,189.14
2024-02-19T04:17:06.948Z,189.57
2024-02-19T04:18:04.703Z,189.62
2024-02-19T04:19:04.684Z,189.82
2024-02-19T04:20:04.582Z,190.05
2024-02-19T04:21:04.548Z,190.57
2024-02-19T04:22:04.757Z,191.84
2024-02-19T04:23:04.609Z,190.96
2024-02-19T04:24:04.558Z,191.59
2024-02-19T04:25:04.610Z,192.21
2024-02-19T04:26:04.549Z,191.87
2024-02-19T04:27:04.560Z,192.37
2024-02-19T04:28:04.685Z,191.96
2024-02-19T04:29:04.553Z,191.39
2024-02-19T04:30:04.596Z,192.48
2024-02-19T04:31:04.624Z,192.20
2024-02-19T04:32:04.586Z,192.43
2024-02-19T04:33:04.681Z,194.28
2024-02-19T04:34:04.742Z,195.64
2024-02-19T04:35:04.720Z,195.19
2024-02-19T04:36:05.650Z,195.21
2024-02-19T04:37:04.606Z,193.66
2024-02-19T04:38:04.642Z,195.23
2024-02-19T04:39:04.666Z,193.84
2024-02-19T04:40:04.622Z,195.05
2024-02-19T04:41:04.725Z,195.29
2024-02-19T04:42:04.590Z,195.27
2024-02-19T04:43:05.103Z,194.59
2024-02-19T04:44:04.613Z,195.27
2024-02-19T04:45:04.720Z,194.25
2024-02-19T04:46:04.741Z,193.52
2024-02-19T04:47:04.773Z,193.64
2024-02-19T04:48:04.926Z,193.89
2024-02-19T04:49:04.961Z,194.37
2024-02-19T04:50:05.009Z,194.83
2024-02-19T04:51:04.943Z,195.36
2024-02-19T04:52:05.078Z,194.68
2024-02-19T04:53:05.019Z,194.97
2024-02-19T04:54:04.940Z,195.05
2024-02-19T04:55:05.073Z,194.43
2024-02-19T04:56:04.970Z,194.10
2024-02-19T04:57:05.166Z,193.25
2024-02-19T04:58:12.911Z,50.00
2024-02-19T04:59:12.884Z,50.00
2024-02-19T05:00:12.917Z,50.00
2024-02-19T05:01:12.988Z,50.00
2024-02-19T05:02:12.937Z,50.00
2024-02-19T05:03:14.807Z,54.74
2024-02-19T05:04:12.985Z,54.94
2024-02-19T05:05:13.034Z,55.13
2024-02-19T05:06:12.882Z,53.05
2024-02-19T05:07:12.866Z,56.96
2024-02-19T05:08:12.953Z,57.74
2024-02-19T05:09:12.851Z,49.43
2024-02-19T05:10:12.910Z,55.99
2024-02-19T05:11:12.981Z,52.44
2024-02-19T05:12:12.869Z,53.91
2024-02-19T05:13:13.023Z,56.99
2024-02-19T05:14:12.941Z,56.28
2024-02-19T05:15:12.928Z,61.84
2024-02-19T05:16:12.919Z,58.56
2024-02-19T05:17:12.894Z,57.14
2024-02-19T05:18:13.058Z,51.56
2024-02-19T05:19:13.082Z,50.00
2024-02-19T05:20:12.916Z,53.99
2024-02-19T05:21:12.889Z,60.67
2024-02-19T05:22:12.960Z,62.34
2024-02-19T05:23:12.935Z,57.50
2024-02-19T05:24:12.906Z,58.20
2024-02-19T05:25:12.855Z,58.29
2024-02-19T05:26:12.989Z,59.05
2024-02-19T05:27:12.933Z,58.65
2024-02-19T05:28:13.115Z,62.31
2024-02-19T05:29:12.914Z,63.00
2024-02-19T05:30:12.982Z,61.17
2024-02-19T05:31:13.029Z,58.49
2024-02-19T05:32:13.577Z,61.13
2024-02-19T05:33:12.915Z,61.97
2024-02-19T05:34:13.138Z,63.22
2024-02-19T05:35:12.907Z,66.21
2024-02-19T05:36:12.903Z,70.23
2024-02-19T05:37:12.945Z,68.23
2024-02-19T05:38:12.898Z,60.28
2024-02-19T05:39:12.950Z,61.64
2024-02-19T05:40:13.002Z,57.53
2024-02-19T05:41:12.923Z,55.40
2024-02-19T05:42:12.901Z,57.16
2024-02-19T05:43:12.980Z,61.19
2024-02-19T05:44:12.852Z,61.65
2024-02-19T05:45:12.976Z,60.33
2024-02-19T05:46:12.952Z,67.82
2024-02-19T05:47:12.893Z,61.18
2024-02-19T05:48:12.964Z,60.58
2024-02-19T05:49:12.974Z,56.89
2024-02-19T05:50:13.095Z,60.77
2024-02-19T05:51:12.889Z,57.49
2024-02-19T05:52:12.957Z,62.00
2024-02-19T05:53:13.009Z,64.95
2024-02-19T05:54:12.899Z,57.83
2024-02-19T05:55:13.041Z,56.94
2024-02-19T05:56:13.001Z,53.85
2024-02-19T05:57:13.051Z,55.59
2024-02-19T05:58:13.228Z,56.15
2024-02-19T05:59:13.150Z,58.35
2024-02-19T06:00:13.171Z,59.20
2024-02-19T06:01:13.238Z,60.50
2024-02-19T06:02:13.351Z,57.51
2024-02-19T06:03:14.295Z,60.10
2024-02-19T06:04:13.392Z,63.61
2024-02-19T06:05:13.364Z,64.84
2024-02-19T06:06:13.377Z,66.30
2024-02-19T06:07:13.534Z,64.66
2024-02-19T06:08:13.509Z,60.95
2024-02-19T06:09:13.459Z,56.13
2024-02-19T06:10:13.609Z,55.98
2024-02-19T06:11:13.572Z,54.18
2024-02-19T06:12:13.545Z,59.69
2024-02-19T06:13:13.737Z,63.13
2024-02-19T06:14:13.673Z,64.77
2024-02-19T06:15:13.703Z,62.89
2024-02-19T06:16:13.687Z,58.89
2024-02-19T06:17:13.892Z,62.29
2024-02-19T06:18:13.923Z,61.05
2024-02-19T06:19:14.106Z,61.66
2024-02-19T06:20:13.946Z,60.94
2024-02-19T06:21:14.034Z,58.62
2024-02-19T06:22:15.565Z,60.50
2024-02-19T06:23:14.368Z,61.70
2024-02-19T06:24:14.140Z,63.39
2024-02-19T06:25:14.245Z,63.32
2024-02-19T06:26:14.307Z,66.10
2024-02-19T06:27:14.304Z,69.18
2024-02-19T06:28:14.626Z,70.44
2024-02-19T06:29:14.439Z,68.12
2024-02-19T06:30:14.535Z,69.27
2024-02-19T06:31:14.627Z,67.32
2024-02-19T06:32:14.603Z,72.62
2024-02-19T06:33:14.779Z,74.46
2024-02-19T06:34:14.842Z,73.15
2024-02-19T06:35:14.808Z,73.77
2024-02-19T06:36:14.733Z,74.17
2024-02-19T06:37:14.783Z,73.71
2024-02-19T06:38:14.811Z,76.02
2024-02-19T06:39:14.855Z,74.94
2024-02-19T06:40:14.997Z,73.76
2024-02-19T06:41:14.969Z,73.38
2024-02-19T06:42:14.992Z,76.58
2024-02-19T06:43:15.099Z,75.30
2024-02-19T06:44:15.061Z,76.77
2024-02-19T06:45:15.064Z,78.50
2024-02-19T06:46:15.103Z,78.81
2024-02-19T06:47:18.606Z,78.09
2024-02-19T06:48:15.329Z,80.13
2024-02-19T06:49:15.261Z,81.90
2024-02-19T06:50:15.275Z,74.98
2024-02-19T06:51:15.174Z,74.37
2024-02-19T06:52:15.124Z,75.46
2024-02-19T06:53:15.266Z,69.64
2024-02-19T06:54:15.140Z,69.00
2024-02-19T06:55:15.413Z,66.14
2024-02-19T06:56:17.047Z,66.74
2024-02-19T06:57:15.130Z,71.32
2024-02-19T06:58:16.391Z,71.43
2024-02-19T06:59:15.381Z,71.11
2024-02-19T07:00:15.199Z,71.25
2024-02-19T07:01:15.308Z,70.99
2024-02-19T07:02:15.253Z,73.06
2024-02-19T07:03:15.301Z,73.21
2024-02-19T07:04:15.348Z,77.08
2024-02-19T07:05:15.587Z,77.84
2024-02-19T07:06:15.373Z,76.37
2024-02-19T07:07:15.428Z,72.35
2024-02-19T07:08:15.597Z,75.47
2024-02-19T07:09:15.407Z,66.03
2024-02-19T07:10:15.485Z,60.81
2024-02-19T07:11:15.637Z,66.00
2024-02-19T07:12:15.571Z,62.62
2024-02-19T07:13:15.738Z,66.23
2024-02-19T07:14:15.658Z,71.33
2024-02-19T07:15:15.660Z,71.18
2024-02-19T07:16:15.911Z,74.49
2024-02-19T07:17:15.813Z,76.60
2024-02-19T07:18:15.986Z,76.84
2024-02-19T07:19:16.050Z,78.80
2024-02-19T07:20:16.185Z,78.51
2024-02-19T07:21:16.000Z,79.25
2024-02-19T07:22:16.092Z,79.99
2024-02-19T07:23:16.099Z,82.26
2024-02-19T07:24:16.158Z,83.90
2024-02-19T07:26:16.311Z,80.32
2024-02-19T07:27:16.354Z,83.88
2024-02-19T07:28:16.335Z,74.76
2024-02-19T07:29:16.259Z,71.88
2024-02-19T07:30:16.359Z,67.21
2024-02-19T07:31:16.425Z,66.98
2024-02-19T07:32:16.492Z,66.52
2024-02-19T07:33:16.621Z,71.72
2024-02-19T07:34:16.521Z,69.64
2024-02-19T07:35:16.519Z,69.63
2024-02-19T07:36:16.489Z,70.63
2024-02-19T07:37:16.628Z,71.16
2024-02-19T07:38:16.668Z,69.27
2024-02-19T07:39:16.604Z,66.72
2024-02-19T07:40:16.652Z,71.57
2024-02-19T07:41:16.626Z,67.48
2024-02-19T07:42:16.657Z,64.42
2024-02-19T07:43:16.714Z,71.40
2024-02-19T07:44:16.773Z,70.65
2024-02-19T07:45:18.175Z,67.97
2024-02-19T07:46:18.045Z,68.12
2024-02-19T07:47:18.478Z,68.10
2024-02-19T07:48:18.492Z,68.36
2024-02-19T07:49:17.627Z,69.42
2024-02-19T07:50:17.324Z,70.96
2024-02-19T07:51:17.636Z,76.03
2024-02-19T07:52:17.447Z,78.55
2024-02-19T07:53:18.233Z,79.30
2024-02-19T07:54:17.551Z,73.65
2024-02-19T07:55:17.388Z,77.10
2024-02-19T07:56:17.397Z,75.84
2024-02-19T07:57:17.470Z,78.46
2024-02-19T07:58:17.598Z,75.80
2024-02-19T07:59:17.486Z,75.86
2024-02-19T08:00:17.596Z,75.70
2024-02-19T08:01:17.731Z,78.22
2024-02-19T08:02:17.769Z,80.08
2024-02-19T08:03:17.712Z,80.36
2024-02-19T08:04:17.799Z,83.14
2024-02-19T08:05:18.044Z,83.96
2024-02-19T08:06:17.770Z,85.59
2024-02-19T08:07:17.919Z,84.11
2024-02-19T08:08:17.985Z,80.99
2024-02-19T08:09:19.507Z,80.14
2024-02-19T08:10:17.902Z,77.35
2024-02-19T08:11:17.908Z,78.53
2024-02-19T08:12:18.249Z,79.59
2024-02-19T08:13:18.982Z,81.33
2024-02-19T08:14:18.170Z,76.65
2024-02-19T08:15:18.141Z,74.73
2024-02-19T08:16:18.445Z,72.90
2024-02-19T08:17:18.224Z,74.64
2024-02-19T08:18:18.432Z,78.50
2024-02-19T08:19:18.548Z,75.02
2024-02-19T08:20:18.354Z,72.96
2024-02-19T08:21:18.353Z,71.77
2024-02-19T08:22:20.625Z,65.23
2024-02-19T08:23:36.329Z,69.95
2024-02-19T08:24:19.401Z,70.50
2024-02-19T08:25:18.552Z,71.61
2024-02-19T08:26:18.948Z,71.39
2024-02-19T08:27:18.531Z,71.76
2024-02-19T08:28:18.600Z,67.72
2024-02-19T08:29:18.614Z,65.47
2024-02-19T08:30:18.528Z,68.84
2024-02-19T08:31:18.604Z,64.77
2024-02-19T08:32:18.526Z,67.58
2024-02-19T08:33:18.530Z,64.54
2024-02-19T08:34:18.602Z,63.28
2024-02-19T08:35:18.584Z,56.22
2024-02-19T08:36:18.494Z,51.94
2024-02-19T08:37:18.796Z,54.69
2024-02-19T08:38:18.562Z,57.26
2024-02-19T08:39:18.539Z,55.65
2024-02-19T08:40:18.772Z,58.18
2024-02-19T08:42:30.774Z,50.00
2024-02-19T08:43:32.858Z,50.00
2024-02-19T08:44:32.129Z,50.00
2024-02-19T08:45:34.318Z,50.00
2024-02-19T08:46:29.730Z,50.00
2024-02-19T08:47:28.059Z,50.00
2024-02-19T08:48:28.516Z,50.00
2024-02-19T08:49:28.064Z,50.00
2024-02-19T08:50:27.996Z,50.00
2024-02-19T08:51:27.995Z,50.00
2024-02-19T08:52:28.155Z,51.93
2024-02-19T08:53:27.992Z,51.94
2024-02-19T08:54:27.978Z,56.60
2024-02-19T08:55:28.139Z,52.44
2024-02-19T08:56:28.002Z,53.47
2024-02-19T08:57:27.923Z,51.25
2024-02-19T08:58:28.097Z,56.61
2024-02-19T08:59:27.968Z,53.90
2024-02-19T09:00:30.247Z,52.36
2024-02-19T09:01:28.106Z,52.49
2024-02-19T09:02:28.032Z,50.09
2024-02-19T09:03:28.110Z,48.82
2024-02-19T09:04:28.097Z,43.12
2024-02-19T09:05:27.965Z,47.45
2024-02-19T09:06:28.007Z,53.81
2024-02-19T09:07:28.020Z,51.90
2024-02-19T09:08:28.006Z,53.98
2024-02-19T09:09:28.018Z,55.52
2024-02-19T09:10:27.989Z,52.79
2024-02-19T09:11:28.122Z,51.01
2024-02-19T09:12:27.967Z,52.25
2024-02-19T09:13:28.097Z,53.18
2024-02-19T09:14:27.990Z,50.83
2024-02-19T09:15:28.030Z,50.62
2024-02-19T09:16:28.871Z,52.29
2024-02-19T09:17:28.730Z,54.95
2024-02-19T09:18:28.701Z,50.00
2024-02-19T09:19:28.088Z,50.23
2024-02-19T09:20:28.231Z,49.82
2024-02-19T09:21:27.923Z,49.98
2024-02-19T09:22:28.070Z,46.86
2024-02-19T09:23:30.912Z,25.55
2024-02-19T09:24:28.033Z,29.68
2024-02-19T09:25:28.227Z,25.62
2024-02-19T09:26:28.000Z,39.17
2024-02-19T09:27:28.059Z,50.80
2024-02-19T09:28:28.067Z,49.17
2024-02-19T09:29:27.994Z,46.60
2024-02-19T09:30:28.016Z,50.00
2024-02-19T09:31:28.088Z,50.42
2024-02-19T09:32:28.011Z,50.00
2024-02-19T09:33:28.666Z,46.96
2024-02-19T09:34:28.080Z,63.60
2024-02-19T09:35:29.052Z,71.82
2024-02-19T09:36:28.326Z,67.93
2024-02-19T09:37:28.897Z,67.75
2024-02-19T09:38:28.484Z,53.70
2024-02-19T09:39:28.032Z,55.30
2024-02-19T09:40:28.082Z,60.87
2024-02-19T09:41:28.069Z,57.69
2024-02-19T09:42:28.159Z,55.17
2024-02-19T09:43:28.411Z,58.57
2024-02-19T09:44:28.296Z,61.35
2024-02-19T09:45:29.023Z,72.04
2024-02-19T09:46:28.966Z,59.39
2024-02-19T09:47:28.781Z,59.69
2024-02-19T09:48:28.931Z,63.80
2024-02-19T09:49:28.907Z,70.21
2024-02-19T09:50:28.964Z,82.24
2024-02-19T09:51:36.540Z,96.57
2024-02-19T09:52:30.610Z,59.66
2024-02-19T09:53:28.804Z,62.53
2024-02-19T09:54:28.707Z,68.46
2024-02-19T09:55:28.855Z,75.44
2024-02-19T09:56:28.766Z,87.67
2024-02-19T09:57:28.758Z,90.03
2024-02-19T09:58:28.912Z,91.19
2024-02-19T09:59:28.898Z,87.55
2024-02-19T10:00:28.915Z,95.11
2024-02-19T10:01:29.052Z,54.49
2024-02-19T10:02:29.066Z,49.79
2024-02-19T10:03:29.082Z,50.00
2024-02-19T10:04:29.215Z,65.66
2024-02-19T10:05:29.312Z,50.00
2024-02-19T10:06:29.799Z,53.63
2024-02-19T10:07:29.179Z,65.03
2024-02-19T10:08:29.247Z,68.62
2024-02-19T10:09:29.374Z,47.58
2024-02-19T10:10:29.341Z,54.41
2024-02-19T10:11:29.312Z,73.44
2024-02-19T10:12:29.286Z,89.56
2024-02-19T10:13:29.640Z,92.09
2024-02-19T10:14:29.736Z,50.00
2024-02-19T10:15:29.431Z,57.56
2024-02-19T10:16:29.637Z,66.58
2024-02-19T10:17:29.564Z,69.95
2024-02-19T10:18:29.763Z,76.74
2024-02-19T10:19:29.625Z,52.87
2024-02-19T10:20:29.685Z,42.40
2024-02-19T10:21:29.642Z,50.00
2024-02-19T10:22:29.642Z,52.34
2024-02-19T10:23:29.672Z,50.85
2024-02-19T10:24:29.672Z,50.00
2024-02-19T10:25:29.683Z,48.36
2024-02-19T10:26:29.953Z,49.92
2024-02-19T10:27:29.842Z,50.67
2024-02-19T10:28:30.049Z,51.20
2024-02-19T10:29:30.104Z,50.00
2024-02-19T10:30:30.105Z,64.02
2024-02-19T10:31:30.111Z,54.82
2024-02-19T10:32:30.098Z,50.06
2024-02-19T10:33:30.206Z,51.79
2024-02-19T10:34:30.152Z,50.67
2024-02-19T10:35:30.223Z,53.59
2024-02-19T10:36:30.148Z,45.32
2024-02-19T10:37:30.215Z,40.56
2024-02-19T10:38:30.329Z,47.02
2024-02-19T10:39:30.327Z,48.85
2024-02-19T10:40:34.522Z,43.22
2024-02-19T10:41:30.517Z,35.92
2024-02-19T10:42:31.129Z,41.65
2024-02-19T10:43:30.514Z,41.83
2024-02-19T10:44:30.313Z,25.27
2024-02-19T10:45:30.309Z,34.40
2024-02-19T10:46:30.990Z,28.24
2024-02-19T10:47:30.376Z,31.42
2024-02-19T10:48:30.446Z,50.00
2024-02-19T10:49:30.419Z,46.21
2024-02-19T10:50:30.535Z,30.41
2024-02-19T10:51:30.393Z,58.62
2024-02-19T10:52:30.569Z,59.37
2024-02-19T10:53:30.350Z,40.02
2024-02-19T10:54:30.355Z,32.23
2024-02-19T10:55:40.953Z,50.51
2024-02-19T10:56:31.328Z,58.02
2024-02-19T10:57:30.325Z,62.35
2024-02-19T10:58:30.514Z,64.29
2024-02-19T10:59:30.322Z,64.37
2024-02-19T11:00:30.410Z,56.98
2024-02-19T11:01:30.393Z,47.77
2024-02-19T11:02:30.387Z,49.58
2024-02-19T11:03:30.397Z,51.36
2024-02-19T11:04:30.411Z,54.07
2024-02-19T11:05:30.542Z,50.00
2024-02-19T11:06:31.845Z,50.00
2024-02-19T11:07:30.452Z,63.09
2024-02-19T11:08:30.368Z,86.08
2024-02-19T11:09:30.976Z,89.92
2024-02-19T11:10:30.496Z,115.28
2024-02-19T11:11:30.468Z,125.05
2024-02-19T11:12:30.431Z,145.75
2024-02-19T11:13:30.645Z,174.69
2024-02-19T11:14:30.436Z,196.37
2024-02-19T11:15:30.410Z,186.38
2024-02-19T11:16:30.485Z,197.18
2024-02-19T11:17:30.430Z,199.07
2024-02-19T11:18:30.552Z,199.98
2024-02-19T11:19:30.571Z,203.29
2024-02-19T11:20:30.404Z,172.82
2024-02-19T11:21:30.454Z,152.71
2024-02-19T11:22:30.391Z,144.14
2024-02-19T11:23:30.627Z,139.66
2024-02-19T11:24:30.408Z,145.66
2024-02-19T11:25:30.639Z,161.25
2024-02-19T11:26:30.402Z,186.64
2024-02-19T11:27:30.458Z,199.28
2024-02-19T11:28:30.474Z,198.80
2024-02-19T11:29:39.808Z,197.34
2024-02-19T11:30:31.434Z,186.82
2024-02-19T11:31:30.499Z,179.95
2024-02-19T11:32:30.560Z,155.71
2024-02-19T11:33:30.561Z,164.68
2024-02-19T11:34:30.672Z,141.61
2024-02-19T11:35:32.731Z,126.30
2024-02-19T11:36:30.477Z,122.30
2024-02-19T11:37:30.830Z,122.98
2024-02-19T11:38:31.688Z,128.70
2024-02-19T11:39:31.515Z,126.65
2024-02-19T11:40:33.616Z,127.54
2024-02-19T11:41:30.514Z,126.85
2024-02-19T11:42:30.612Z,130.23
2024-02-19T11:43:30.631Z,133.56
2024-02-19T11:44:30.646Z,146.55
2024-02-19T11:45:30.434Z,156.09
2024-02-19T11:46:30.519Z,147.35
2024-02-19T11:47:30.558Z,138.32
2024-02-19T11:48:30.521Z,157.00
2024-02-19T11:49:30.708Z,146.29
2024-02-19T11:50:30.682Z,144.57
2024-02-19T11:51:30.461Z,144.25
2024-02-19T11:52:31.374Z,146.96
2024-02-19T11:53:30.615Z,135.99
2024-02-19T11:54:30.501Z,125.85
2024-02-19T11:55:30.874Z,135.70
2024-02-19T11:56:30.570Z,131.17
2024-02-19T11:57:30.644Z,116.00
2024-02-19T11:58:30.737Z,125.68
2024-02-19T11:59:30.619Z,127.84
2024-02-19T12:00:30.500Z,163.62
2024-02-19T12:01:30.502Z,161.66
2024-02-19T12:02:30.522Z,185.72
2024-02-19T12:03:30.498Z,197.60
2024-02-19T12:04:30.646Z,185.61
2024-02-19T12:05:30.593Z,169.56
2024-02-19T12:06:31.204Z,164.67
2024-02-19T12:07:33.168Z,141.98
2024-02-19T12:08:30.603Z,136.98
2024-02-19T12:09:30.635Z,139.97
2024-02-19T12:10:31.041Z,135.99
2024-02-19T12:11:32.227Z,131.68
2024-02-19T12:12:30.510Z,132.11
2024-02-19T12:13:30.759Z,135.74
2024-02-19T12:14:30.716Z,142.95
2024-02-19T12:15:30.761Z,148.13
2024-02-19T12:16:30.615Z,144.92
2024-02-19T12:17:33.249Z,141.19
2024-02-19T12:18:30.667Z,141.34
2024-02-19T12:19:30.774Z,142.59
2024-02-19T12:20:30.551Z,151.36
2024-02-19T12:21:30.672Z,173.82
2024-02-19T12:22:30.538Z,176.64
2024-02-19T12:23:30.574Z,171.57
2024-02-19T12:24:30.625Z,154.81
2024-02-19T12:25:30.707Z,159.87
2024-02-19T12:26:30.729Z,154.71
2024-02-19T12:27:30.715Z,154.96
2024-02-19T12:28:30.667Z,170.23
2024-02-19T12:29:30.737Z,166.20
2024-02-19T12:30:30.546Z,150.23
2024-02-19T12:31:30.534Z,144.91
2024-02-19T12:32:30.552Z,146.18
2024-02-19T12:33:35.277Z,145.76
2024-02-19T12:53:39.895Z,50.00
2024-02-19T12:54:39.485Z,50.00
2024-02-19T12:55:39.556Z,50.00
2024-02-19T12:56:40.160Z,50.00
2024-02-19T12:57:39.425Z,50.00
2024-02-19T12:58:39.451Z,48.55
2024-02-19T12:59:39.476Z,50.47
2024-02-19T13:00:39.414Z,36.81
2024-02-19T13:01:39.490Z,31.93
2024-02-19T13:02:39.465Z,47.57